Time;durP1;ratioP1;P1;durP2;ratioP2;P2;SDS_P1;SDS_P2;PMS_P1;PMS_P2;Temp;Humidity;BMP_temperature;BMP_pressure;BME280_temperature;BME280_humidity;BME280_pressure;Samples;Min_cycle;Max_cycle;Signal;HPM_P1;HPM_P2
2023/01/24 00:02:21;;;;;;;24.70;10.20;;;4.20;1.00;;;;;;5046924;28;20401;-53
2023/01/24 00:04:47;;;;;;;23.83;10.33;;;4.20;1.00;;;;;;5032584;28;20445;-54
2023/01/24 00:07:13;;;;;;;21.48;9.55;;;4.30;1.00;;;;;;5032002;28;20472;-53
2023/01/24 00:09:38;;;;;;;18.70;8.15;;;4.10;5.90;;;;;;5032871;28;20853;-53
2023/01/24 00:12:04;;;;;;;21.42;9.50;;;4.10;7.10;;;;;;5032776;28;20486;-55
2023/01/24 00:14:30;;;;;;;19.00;8.40;;;4.20;48.50;;;;;;5032225;28;20443;-53
2023/01/24 00:16:55;;;;;;;23.53;9.30;;;4.10;99.90;;;;;;5032448;28;20384;-52
2023/01/24 00:19:21;;;;;;;22.15;9.68;;;4.00;99.90;;;;;;5031622;28;20375;-55
2023/01/24 00:21:46;;;;;;;20.43;10.27;;;4.10;99.90;;;;;;5032318;28;20860;-53
2023/01/24 00:24:12;;;;;;;22.52;10.05;;;4.00;99.90;;;;;;5031923;28;20394;-59
2023/01/24 00:26:38;;;;;;;21.83;9.73;;;3.90;1.00;;;;;;5032897;28;20868;-53
2023/01/24 00:29:04;;;;;;;22.08;9.90;;;4.00;1.00;;;;;;5032181;28;20383;-53
2023/01/24 00:31:30;;;;;;;23.70;9.43;;;3.90;99.90;;;;;;5031462;28;20445;-53
2023/01/24 00:33:55;;;;;;;20.27;9.15;;;3.90;99.90;;;;;;5031204;28;20411;-53
2023/01/24 00:36:21;;;;;;;21.17;9.07;;;3.80;1.00;;;;;;5032317;28;20388;-53
2023/01/24 00:38:47;;;;;;;25.08;11.68;;;4.70;21.70;;;;;;5032394;28;20452;-52
2023/01/24 00:41:12;;;;;;;24.67;10.27;;;3.80;99.90;;;;;;5031794;28;20383;-53
2023/01/24 00:43:38;;;;;;;22.73;9.30;;;3.70;99.90;;;;;;5032319;28;20454;-53
2023/01/24 00:46:08;;;;;;;26.17;10.13;;;3.70;99.90;;;;;;5030728;28;20414;-53
2023/01/24 00:48:34;;;;;;;21.65;9.73;;;3.60;99.90;;;;;;5031194;28;20470;-53
2023/01/24 00:50:59;;;;;;;21.83;9.67;;;3.70;99.90;;;;;;5032386;28;20487;-53
2023/01/24 00:53:26;;;;;;;24.15;10.30;;;4.40;1.00;;;;;;5031116;28;20524;-54
2023/01/24 00:55:54;;;;;;;21.85;8.88;;;3.80;1.00;;;;;;5032183;28;20740;-53
2023/01/24 00:58:20;;;;;;;24.75;10.73;;;3.80;99.90;;;;;;5030957;28;20391;-53
2023/01/24 01:00:46;;;;;;;22.42;10.27;;;3.90;99.90;;;;;;5031520;28;20387;-53
2023/01/24 01:03:15;;;;;;;23.05;9.65;;;3.90;81.90;;;;;;5031353;28;20374;-59
2023/01/24 01:05:40;;;;;;;22.02;10.25;;;3.90;27.50;;;;;;5030000;28;20439;-54
2023/01/24 01:08:06;;;;;;;24.70;9.45;;;3.90;1.00;;;;;;5031173;28;20445;-53
2023/01/24 01:10:32;;;;;;;24.80;10.17;;;4.70;99.90;;;;;;5030523;28;20375;-53
2023/01/24 01:12:57;;;;;;;21.50;9.40;;;3.80;1.00;;;;;;5031029;28;20387;-53
2023/01/24 01:15:23;;;;;;;20.73;9.50;;;4.60;76.50;;;;;;5030299;28;20387;-55
2023/01/24 01:17:48;;;;;;;23.73;9.90;;;3.60;1.00;;;;;;5031263;28;20387;-53
2023/01/24 01:20:15;;;;;;;24.58;10.15;;;3.60;99.90;;;;;;5030472;28;20407;-52
2023/01/24 01:22:41;;;;;;;26.67;11.50;;;3.50;99.90;;;;;;5030665;28;20395;-53
2023/01/24 01:25:07;;;;;;;22.40;10.00;;;3.50;99.90;;;;;;5031005;28;20891;-53
2023/01/24 01:27:32;;;;;;;24.77;10.38;;;3.60;1.00;;;;;;5030661;28;20437;-53
2023/01/24 01:29:58;;;;;;;26.35;10.10;;;3.70;99.90;;;;;;5031051;28;20463;-53
2023/01/24 01:32:24;;;;;;;23.00;9.50;;;3.80;1.00;;;;;;5030487;28;20888;-53
2023/01/24 01:34:49;;;;;;;22.33;10.27;;;3.90;99.90;;;;;;5031371;28;20863;-53
2023/01/24 01:37:15;;;;;;;21.13;9.83;;;3.80;66.60;;;;;;5030898;28;20371;-53
2023/01/24 01:39:40;;;;;;;21.13;10.45;;;3.80;99.90;;;;;;5031015;28;20383;-53
2023/01/24 01:42:06;;;;;;;21.83;9.93;;;3.80;99.90;;;;;;5031065;28;20414;-53
2023/01/24 01:44:37;;;;;;;27.08;10.13;;;3.90;99.90;;;;;;5029845;28;20767;-53
2023/01/24 01:47:05;;;;;;;26.47;11.30;;;3.80;1.00;;;;;;5031062;28;20473;-53
2023/01/24 01:49:31;;;;;;;26.02;9.82;;;3.80;99.90;;;;;;5030237;28;20387;-53
2023/01/24 01:52:03;;;;;;;22.77;9.40;;;4.80;99.90;;;;;;5030820;28;20451;-53
2023/01/24 01:54:34;;;;;;;21.90;10.05;;;3.70;96.10;;;;;;5030082;28;20473;-56
2023/01/24 01:57:11;;;;;;;22.02;11.15;;;3.70;99.90;;;;;;5030639;28;20736;-53
2023/01/24 01:59:54;;;;;;;23.70;10.18;;;3.80;99.90;;;;;;5030782;28;20387;-53
2023/01/24 02:02:22;;;;;;;25.05;10.60;;;4.80;1.00;;;;;;5029203;28;20391;-53
2023/01/24 02:04:57;;;;;;;20.87;8.90;;;3.80;63.50;;;;;;5030462;28;20403;-53
2023/01/24 02:07:28;;;;;;;20.23;9.57;;;4.70;99.90;;;;;;5030065;28;20407;-53
2023/01/24 02:09:55;;;;;;;23.10;10.25;;;3.70;99.90;;;;;;5030836;28;20381;-53
2023/01/24 02:12:39;;;;;;;23.10;9.85;;;3.70;99.90;;;;;;5029200;28;20407;-53
2023/01/24 02:17:56;;;;;;;21.90;9.82;;;2.70;99.90;;;;;;5030544;28;20379;-54
2023/01/24 02:20:25;;;;;;;21.52;9.23;;;3.90;1.00;;;;;;5031950;28;20884;-52
2023/01/24 02:23:29;;;;;;;20.33;8.60;;;3.80;91.50;;;;;;5039458;28;20391;-53
2023/01/24 02:26:05;;;;;;;21.33;8.85;;;3.80;1.00;;;;;;5030227;28;20415;-53
2023/01/24 02:28:31;;;;;;;22.98;10.65;;;3.60;99.90;;;;;;5029553;28;20533;-53
2023/01/24 02:30:58;;;;;;;19.77;9.05;;;3.60;1.00;;;;;;5029585;28;20904;-54
2023/01/24 02:33:23;;;;;;;22.60;8.77;;;4.60;1.00;;;;;;5029693;28;21173;-52
2023/01/24 02:35:49;;;;;;;26.60;10.40;;;3.60;1.00;;;;;;5029680;28;20371;-52
2023/01/24 02:38:28;;;;;;;23.10;9.98;;;3.70;99.90;;;;;;5029211;28;20387;-58
2023/01/24 02:40:56;;;;;;;21.80;9.15;;;3.70;1.00;;;;;;5030024;28;20852;-53
2023/01/24 02:43:25;;;;;;;21.90;9.80;;;3.80;1.00;;;;;;5029233;28;20445;-52
2023/01/24 02:45:51;;;;;;;22.05;8.25;;;4.40;99.90;;;;;;5029475;28;20398;-52
2023/01/24 02:48:16;;;;;;;21.05;9.38;;;3.70;99.90;;;;;;5029391;28;20795;-53
2023/01/24 02:53:30;;;;;;;23.52;10.27;;;4.40;99.90;;;;;;5028967;28;20437;-53
2023/01/24 02:58:45;;;;;;;24.85;10.85;;;3.90;99.90;;;;;;5030047;28;20429;-53
2023/01/24 03:01:11;;;;;;;26.73;11.15;;;4.80;1.00;;;;;;5029627;28;20398;-52
2023/01/24 03:03:37;;;;;;;22.33;9.88;;;3.80;99.90;;;;;;5029143;28;20399;-53
2023/01/24 03:06:02;;;;;;;22.67;9.00;;;3.70;1.00;;;;;;5029536;28;20792;-52
2023/01/24 03:08:33;;;;;;;21.75;9.00;;;3.80;1.00;;;;;;5029324;28;20430;-52
2023/01/24 03:10:58;;;;;;;22.88;11.00;;;3.80;1.00;;;;;;5030195;28;20457;-52
2023/01/24 03:35:20;;;;;;;21.90;9.38;;;3.70;99.90;;;;;;5048917;28;20488;-54
2023/01/24 03:40:30;;;;;;;22.85;9.15;;;3.70;1.00;;;;;;5049262;28;20424;-52
2023/01/24 03:42:56;;;;;;;23.63;9.10;;;3.70;99.90;;;;;;5049290;28;20377;-52
2023/01/24 03:45:24;;;;;;;21.87;9.40;;;3.70;99.90;;;;;;5048297;28;20468;-53
2023/01/24 03:47:55;;;;;;;21.38;8.50;;;3.70;1.00;;;;;;5049559;28;20746;-52
2023/01/24 03:53:10;;;;;;;22.77;9.70;;;3.50;1.00;;;;;;5049419;28;20442;-52
2023/01/24 03:55:36;;;;;;;22.85;9.55;;;3.60;99.90;;;;;;5049422;28;20397;-53
2023/01/24 03:58:03;;;;;;;20.23;9.15;;;3.60;99.90;;;;;;5049327;28;20769;-52
2023/01/24 04:00:29;;;;;;;21.52;9.23;;;3.60;1.00;;;;;;5048906;28;20377;-52
2023/01/24 04:02:54;;;;;;;23.17;8.63;;;3.60;1.00;;;;;;5048714;28;20431;-53
2023/01/24 04:05:20;;;;;;;27.50;9.50;;;3.60;99.90;;;;;;5048368;28;20455;-53
2023/01/24 04:07:46;;;;;;;21.13;9.23;;;3.60;1.00;;;;;;5050714;28;20391;-53
2023/01/24 04:10:13;;;;;;;24.15;10.20;;;3.50;1.00;;;;;;5051404;28;20765;-53
2023/01/24 04:12:42;;;;;;;24.58;9.88;;;3.50;99.90;;;;;;5052760;28;20400;-53
2023/01/24 04:15:13;;;;;;;21.63;10.48;;;3.60;99.90;;;;;;5052484;28;20395;-52
2023/01/24 04:17:38;;;;;;;20.80;9.32;;;3.60;1.00;;;;;;5052110;28;20380;-53
2023/01/24 04:20:04;;;;;;;21.87;9.33;;;3.60;99.90;;;;;;5052564;28;20378;-52
2023/01/24 04:22:30;;;;;;;21.45;9.20;;;3.60;99.90;;;;;;5052226;28;20385;-53
2023/01/24 04:24:55;;;;;;;22.98;9.60;;;3.60;99.90;;;;;;5052271;28;20416;-53
2023/01/24 04:27:21;;;;;;;24.57;9.33;;;4.70;37.50;;;;;;5051676;28;20425;-52
2023/01/24 04:29:47;;;;;;;24.25;8.73;;;3.70;1.00;;;;;;5052603;28;20377;-53
2023/01/24 04:32:13;;;;;;;26.13;10.30;;;3.70;99.90;;;;;;5065568;28;20408;-52
2023/01/24 04:34:39;;;;;;;21.92;10.02;;;3.80;99.90;;;;;;5071130;28;20376;-52
2023/01/24 04:37:05;;;;;;;24.42;10.48;;;4.70;1.00;;;;;;5072147;28;21073;-53
2023/01/24 04:39:31;;;;;;;22.35;10.05;;;3.50;99.90;;;;;;5071658;28;20390;-52
2023/01/24 04:41:56;;;;;;;26.33;10.97;;;3.50;99.90;;;;;;5067685;28;20471;-53
2023/01/24 04:44:22;;;;;;;26.50;10.05;;;3.60;99.90;;;;;;5071464;28;20388;-52
2023/01/24 04:46:47;;;;;;;25.40;10.30;;;3.60;76.80;;;;;;5057046;28;20400;-53
2023/01/24 04:49:13;;;;;;;22.50;10.37;;;3.50;99.90;;;;;;5052107;28;20413;-59
2023/01/24 04:51:42;;;;;;;26.83;10.20;;;3.50;80.80;;;;;;5037688;28;20410;-52
2023/01/24 04:54:11;;;;;;;25.45;11.23;;;4.20;1.00;;;;;;5041161;28;20475;-52
2023/01/24 04:56:37;;;;;;;21.70;10.17;;;3.50;1.00;;;;;;5043708;28;20728;-52
2023/01/24 04:59:02;;;;;;;24.20;10.80;;;3.60;1.00;;;;;;5032343;28;20829;-53
2023/01/24 05:01:28;;;;;;;21.58;10.20;;;3.60;1.00;;;;;;5036563;28;20432;-53
2023/01/24 05:03:58;;;;;;;29.95;11.02;;;3.60;1.00;;;;;;5051757;28;20433;-53
2023/01/24 05:06:28;;;;;;;25.42;10.20;;;3.40;1.00;;;;;;5051109;28;20384;-52
2023/01/24 05:08:55;;;;;;;24.52;10.85;;;3.40;1.00;;;;;;5059095;28;20552;-52
2023/01/24 05:11:21;;;;;;;25.27;11.18;;;3.50;99.90;;;;;;5058440;28;20960;-53
2023/01/24 05:13:47;;;;;;;24.55;11.10;;;3.40;1.00;;;;;;5051589;28;20443;-53
2023/01/24 05:16:12;;;;;;;27.90;11.80;;;3.60;1.00;;;;;;5051200;28;20381;-53
2023/01/24 05:18:38;;;;;;;28.05;10.52;;;3.60;99.90;;;;;;5043749;28;20871;-53
2023/01/24 05:21:15;;;;;;;24.90;10.67;;;3.50;1.00;;;;;;5054563;28;20402;-52
2023/01/24 05:23:41;;;;;;;26.67;10.20;;;3.50;1.00;;;;;;5059872;28;20869;-53
2023/01/24 05:26:07;;;;;;;24.33;10.43;;;3.50;99.90;;;;;;5058134;28;20404;-52
2023/01/24 05:28:33;;;;;;;26.17;11.27;;;3.50;1.00;;;;;;5069896;28;20395;-53
2023/01/24 05:31:00;;;;;;;26.92;11.38;;;4.30;1.00;;;;;;5057190;28;20405;-53
2023/01/24 05:33:26;;;;;;;30.02;11.38;;;3.50;1.00;;;;;;5066170;28;20391;-53
2023/01/24 05:36:02;;;;;;;22.38;10.55;;;3.60;1.00;;;;;;5050173;28;20492;-53
2023/01/24 05:38:28;;;;;;;24.20;10.90;;;3.60;99.90;;;;;;5059891;28;20394;-54
2023/01/24 05:40:53;;;;;;;27.85;10.80;;;3.60;1.00;;;;;;5057221;28;20409;-55
2023/01/24 05:43:19;;;;;;;29.45;12.30;;;3.80;99.90;;;;;;5049653;28;20857;-58
2023/01/24 05:45:44;;;;;;;27.00;10.90;;;3.50;99.90;;;;;;5053588;28;20870;-53
2023/01/24 05:48:10;;;;;;;26.58;11.43;;;3.50;1.00;;;;;;5051671;28;20496;-53
2023/01/24 05:50:36;;;;;;;27.90;11.23;;;3.50;1.00;;;;;;5051272;28;20571;-52
2023/01/24 05:53:03;;;;;;;24.13;11.20;;;3.60;1.00;;;;;;5057827;28;20436;-53
2023/01/24 05:55:28;;;;;;;25.85;11.38;;;4.00;99.90;;;;;;5068542;28;20837;-53
2023/01/24 05:57:54;;;;;;;29.97;12.07;;;3.60;99.90;;;;;;5059794;28;20473;-53
2023/01/24 06:00:20;;;;;;;26.57;11.70;;;3.70;75.20;;;;;;5049833;28;20420;-53
2023/01/24 06:02:45;;;;;;;25.63;11.32;;;3.70;1.00;;;;;;5050096;28;20851;-53
2023/01/24 06:05:11;;;;;;;25.40;10.10;;;3.60;1.00;;;;;;5066657;28;20402;-54
2023/01/24 06:07:36;;;;;;;24.35;11.00;;;3.60;99.90;;;;;;5068578;28;20383;-53
2023/01/24 06:10:02;;;;;;;30.03;12.50;;;3.60;1.00;;;;;;5054695;28;20376;-53
2023/01/24 06:12:28;;;;;;;26.15;11.68;;;3.80;99.90;;;;;;5059310;28;20506;-54
2023/01/24 06:14:54;;;;;;;27.30;11.47;;;3.90;1.00;;;;;;5066876;28;20463;-55
2023/01/24 06:17:19;;;;;;;27.38;11.60;;;3.80;1.00;;;;;;5064440;28;20395;-58
2023/01/24 06:19:45;;;;;;;26.33;11.03;;;3.90;99.90;;;;;;5059512;28;20388;-53
2023/01/24 06:22:53;;;;;;;24.85;10.65;;;3.80;1.00;;;;;;5066734;28;20422;-52
2023/01/24 06:25:24;;;;;;;26.08;10.57;;;3.60;53.70;;;;;;5060096;28;20418;-58
2023/01/24 06:27:50;;;;;;;28.60;11.75;;;3.40;99.90;;;;;;5070372;28;20881;-53
2023/01/24 06:30:17;;;;;;;28.38;12.95;;;3.50;1.00;;;;;;5069012;28;20383;-58
2023/01/24 06:33:17;;;;;;;27.10;10.13;;;3.50;1.00;;;;;;5068933;28;20404;-53
2023/01/24 06:36:01;;;;;;;26.27;11.07;;;3.40;4.40;;;;;;5069070;28;20388;-53
2023/01/24 06:38:27;;;;;;;29.30;12.15;;;3.60;99.90;;;;;;5068677;28;20387;-53
2023/01/24 06:40:56;;;;;;;30.20;12.73;;;3.40;1.00;;;;;;5069901;28;20737;-53
2023/01/24 06:43:22;;;;;;;30.95;10.88;;;3.50;50.30;;;;;;5068809;28;20383;-53
2023/01/24 06:45:48;;;;;;;31.13;13.27;;;3.70;99.90;;;;;;5069570;28;20455;-53
2023/01/24 06:48:13;;;;;;;24.13;11.77;;;3.50;96.10;;;;;;5066557;28;20472;-53
2023/01/24 06:50:39;;;;;;;30.47;12.20;;;3.70;1.00;;;;;;5048554;28;20488;-53
2023/01/24 06:53:05;;;;;;;28.00;12.13;;;4.00;99.90;;;;;;5049385;28;20867;-53
2023/01/24 06:55:31;;;;;;;29.47;12.37;;;3.30;1.00;;;;;;5048903;28;20397;-53
2023/01/24 06:57:58;;;;;;;31.13;11.50;;;3.30;1.00;;;;;;5049780;28;20386;-53
2023/01/24 07:00:24;;;;;;;27.35;11.63;;;3.40;99.90;;;;;;5048597;28;20374;-53
2023/01/24 07:03:16;;;;;;;31.70;12.30;;;3.40;99.90;;;;;;5049507;28;20381;-53
2023/01/24 07:05:42;;;;;;;26.88;10.77;;;3.40;99.90;;;;;;5040389;28;20419;-53
2023/01/24 07:08:08;;;;;;;27.63;10.82;;;3.20;1.00;;;;;;5048369;28;20477;-56
2023/01/24 07:10:33;;;;;;;25.73;10.37;;;3.30;99.90;;;;;;5048469;28;20859;-53
2023/01/24 07:12:59;;;;;;;23.90;10.23;;;3.30;1.00;;;;;;5049394;28;20388;-53
2023/01/24 07:15:25;;;;;;;25.85;10.35;;;3.20;1.00;;;;;;5048222;28;20738;-56
2023/01/24 07:17:50;;;;;;;24.57;10.70;;;3.40;41.70;;;;;;5049363;28;20750;-53
2023/01/24 07:20:16;;;;;;;25.00;10.10;;;3.20;85.00;;;;;;5048909;28;20390;-59
2023/01/24 07:22:43;;;;;;;24.90;10.13;;;3.30;1.00;;;;;;5048914;28;20448;-53
2023/01/24 07:25:14;;;;;;;30.98;11.40;;;3.30;1.00;;;;;;5049015;28;20895;-53
2023/01/24 07:27:42;;;;;;;27.00;11.40;;;3.30;1.00;;;;;;5048306;28;20441;-53
2023/01/24 07:30:08;;;;;;;24.67;10.23;;;3.40;1.00;;;;;;5049036;28;20799;-54
2023/01/24 07:32:34;;;;;;;26.75;11.23;;;3.40;1.00;;;;;;5048291;28;20423;-53
2023/01/24 07:34:59;;;;;;;21.57;9.10;;;3.40;1.00;;;;;;5048944;28;20390;-53
2023/01/24 07:37:25;;;;;;;23.70;10.45;;;3.40;99.90;;;;;;5048315;28;20373;-53
2023/01/24 07:39:50;;;;;;;27.87;11.57;;;3.30;1.00;;;;;;5049294;28;20389;-53
2023/01/24 07:42:16;;;;;;;25.15;10.30;;;3.40;1.00;;;;;;5049522;28;20867;-54
2023/01/24 07:44:41;;;;;;;23.37;9.40;;;3.50;99.90;;;;;;5051126;28;20405;-55
2023/01/24 07:47:07;;;;;;;28.08;12.00;;;3.40;99.90;;;;;;5052607;28;20389;-52
2023/01/24 07:49:32;;;;;;;22.70;9.60;;;3.40;1.00;;;;;;5052039;28;20700;-53
2023/01/24 07:51:58;;;;;;;29.60;11.27;;;4.00;1.00;;;;;;5052590;28;20448;-53
2023/01/24 07:54:24;;;;;;;26.03;10.90;;;3.40;99.90;;;;;;5050538;28;20820;-53
2023/01/24 07:56:49;;;;;;;27.88;10.43;;;3.50;99.90;;;;;;5052730;28;20381;-53
2023/01/24 07:59:15;;;;;;;26.50;11.53;;;3.50;99.90;;;;;;5051607;28;20736;-53
2023/01/24 08:01:41;;;;;;;28.02;12.68;;;3.50;99.90;;;;;;5051903;28;20386;-52
2023/01/24 08:04:06;;;;;;;25.38;11.10;;;3.60;15.30;;;;;;5052346;28;20389;-53
2023/01/24 08:06:32;;;;;;;23.50;9.80;;;3.50;99.90;;;;;;5051696;28;20431;-53
2023/01/24 08:08:57;;;;;;;30.85;12.15;;;3.50;99.90;;;;;;5052341;28;20389;-52
2023/01/24 08:11:23;;;;;;;25.07;11.30;;;3.60;45.60;;;;;;5051486;28;20406;-52
2023/01/24 08:13:50;;;;;;;29.97;11.80;;;4.60;1.00;;;;;;5052363;28;20385;-53
2023/01/24 08:16:15;;;;;;;25.10;11.03;;;3.40;99.90;;;;;;5052106;28;20859;-53
2023/01/24 08:18:41;;;;;;;26.30;11.40;;;3.30;99.90;;;;;;5050349;28;20381;-53
2023/01/24 08:21:07;;;;;;;26.02;11.73;;;3.50;1.00;;;;;;5052101;28;20397;-53
2023/01/24 08:23:33;;;;;;;29.92;11.05;;;3.70;99.90;;;;;;5051522;28;20440;-53
2023/01/24 08:26:00;;;;;;;29.48;12.38;;;3.70;1.00;;;;;;5052004;28;20437;-54
2023/01/24 08:28:26;;;;;;;28.25;11.15;;;3.80;99.90;;;;;;5051406;28;20889;-54
2023/01/24 08:30:52;;;;;;;25.67;10.85;;;4.00;22.50;;;;;;5051615;28;20382;-54
2023/01/24 08:33:18;;;;;;;25.50;10.27;;;4.90;97.20;;;;;;5051989;28;20389;-56
2023/01/24 08:35:45;;;;;;;25.85;10.55;;;3.80;1.00;;;;;;5051664;28;20374;-54
2023/01/24 08:38:12;;;;;;;29.42;11.25;;;3.70;1.00;;;;;;5052002;28;20567;-53
2023/01/24 08:40:37;;;;;;;29.10;11.13;;;3.60;99.90;;;;;;5051307;28;20393;-53
2023/01/24 08:43:03;;;;;;;29.65;11.10;;;3.70;1.00;;;;;;5051915;28;20381;-53
2023/01/24 08:45:29;;;;;;;26.48;10.48;;;3.80;1.00;;;;;;5050930;28;20926;-53
2023/01/24 08:47:55;;;;;;;23.67;10.93;;;3.90;99.90;;;;;;5051726;28;20386;-54
2023/01/24 08:50:21;;;;;;;23.20;10.30;;;3.90;1.00;;;;;;5051244;28;20885;-59
2023/01/24 08:52:48;;;;;;;22.17;10.13;;;3.90;1.00;;;;;;5051302;28;20898;-54
2023/01/24 08:55:13;;;;;;;24.38;10.35;;;4.00;99.90;;;;;;5050909;28;20408;-54
2023/01/24 08:57:39;;;;;;;20.80;9.90;;;4.00;1.00;;;;;;5050920;28;21024;-53
2023/01/24 09:00:06;;;;;;;26.37;9.60;;;3.90;99.90;;;;;;5051633;28;20716;-53
2023/01/24 09:02:32;;;;;;;26.52;11.20;;;3.90;56.50;;;;;;5050552;28;20398;-53
2023/01/24 09:04:58;;;;;;;24.50;10.35;;;4.90;99.90;;;;;;5051651;28;20413;-53
2023/01/24 09:07:24;;;;;;;23.92;10.45;;;5.00;99.90;;;;;;5050460;28;20412;-55
2023/01/24 09:09:49;;;;;;;22.48;10.60;;;4.00;99.90;;;;;;5051367;28;20469;-53
2023/01/24 09:12:15;;;;;;;26.87;11.27;;;4.00;1.00;;;;;;5051135;28;20455;-53
2023/01/24 09:14:40;;;;;;;25.20;10.70;;;5.00;1.00;;;;;;5050371;28;20533;-54
2023/01/24 09:17:06;;;;;;;25.33;10.67;;;3.90;99.90;;;;;;5051276;28;20382;-54
2023/01/24 09:19:31;;;;;;;31.63;11.20;;;3.90;1.00;;;;;;5050805;28;20385;-54
2023/01/24 09:21:57;;;;;;;24.85;11.30;;;4.30;1.00;;;;;;5050780;28;20385;-53
2023/01/24 09:24:24;;;;;;;27.17;10.80;;;4.10;99.90;;;;;;5050056;28;20398;-58
2023/01/24 09:26:49;;;;;;;24.43;11.43;;;4.20;99.90;;;;;;5051288;28;20382;-54
2023/01/24 09:29:15;;;;;;;23.10;10.30;;;5.30;99.90;;;;;;5051003;28;20451;-53
2023/01/24 09:31:40;;;;;;;23.25;10.27;;;4.30;1.00;;;;;;5050147;28;20463;-55
2023/01/24 09:34:06;;;;;;;27.90;11.00;;;4.10;1.00;;;;;;5050929;28;20409;-53
2023/01/24 09:36:31;;;;;;;25.45;10.40;;;4.20;1.00;;;;;;5049837;28;20858;-54
2023/01/24 09:38:57;;;;;;;22.73;8.73;;;4.00;99.90;;;;;;5050764;28;20389;-53
2023/01/24 09:41:44;;;;;;;22.73;10.77;;;4.80;99.90;;;;;;5050052;28;20385;-58
2023/01/24 09:44:39;;;;;;;23.65;9.93;;;4.00;1.00;;;;;;5050811;28;20389;-54
2023/01/24 09:47:18;;;;;;;24.80;10.43;;;4.00;99.90;;;;;;5023556;28;20397;-53
2023/01/24 09:49:56;;;;;;;27.53;11.13;;;4.00;99.90;;;;;;5050049;28;20456;-53
2023/01/24 09:52:42;;;;;;;25.50;10.17;;;4.20;99.90;;;;;;5049969;28;20405;-58
2023/01/24 09:55:23;;;;;;;25.10;11.03;;;4.30;1.00;;;;;;5050146;28;20464;-53
2023/01/24 09:58:01;;;;;;;20.95;9.90;;;4.20;1.00;;;;;;5050239;28;20394;-53
2023/01/24 10:00:29;;;;;;;25.60;12.20;;;4.30;1.00;;;;;;5049302;28;20952;-53
2023/01/24 10:02:57;;;;;;;21.73;10.02;;;4.50;99.90;;;;;;5050267;28;20892;-54
2023/01/24 10:05:38;;;;;;;21.48;10.70;;;4.90;99.90;;;;;;5049488;28;20435;-59
2023/01/24 10:08:25;;;;;;;25.50;10.02;;;4.30;1.00;;;;;;5050387;28;20377;-55
2023/01/24 10:10:53;;;;;;;23.53;9.17;;;4.30;99.90;;;;;;5050300;28;20394;-53
2023/01/24 10:13:52;;;;;;;25.48;10.70;;;4.30;99.90;;;;;;5050123;28;20393;-58
2023/01/24 10:16:31;;;;;;;19.83;8.63;;;4.40;99.90;;;;;;5050179;28;20400;-53
2023/01/24 10:19:34;;;;;;;19.15;8.90;;;4.40;99.90;;;;;;5050245;28;20384;-53
2023/01/24 10:22:37;;;;;;;23.92;10.25;;;4.70;99.90;;;;;;5050384;28;20376;-53
2023/01/24 10:25:24;;;;;;;21.65;8.40;;;4.50;1.00;;;;;;5049316;28;21264;-53
2023/01/24 10:27:55;;;;;;;20.07;9.03;;;4.50;1.00;;;;;;5049724;28;20389;-53
2023/01/24 10:30:29;;;;;;;15.90;7.40;;;4.40;99.90;;;;;;5049621;28;20369;-59
2023/01/24 10:33:16;;;;;;;18.88;7.90;;;5.00;99.90;;;;;;5049794;28;20901;-53
2023/01/24 10:35:58;;;;;;;17.45;8.13;;;4.70;99.90;;;;;;5049148;28;21145;-54
2023/01/24 10:38:24;;;;;;;19.53;8.37;;;4.90;99.90;;;;;;5049261;28;20477;-58
2023/01/24 10:41:09;;;;;;;19.40;8.03;;;5.30;1.00;;;;;;5049170;28;20519;-53
2023/01/24 10:43:36;;;;;;;18.85;8.30;;;4.80;1.00;;;;;;5049229;28;20842;-53
2023/01/24 10:46:21;;;;;;;19.30;8.43;;;4.90;1.00;;;;;;5049611;28;20378;-53
2023/01/24 10:48:50;;;;;;;15.25;7.43;;;4.90;1.00;;;;;;5049136;28;20855;-53
2023/01/24 10:51:22;;;;;;;17.63;8.18;;;5.80;1.00;;;;;;5049481;28;20429;-53
2023/01/24 10:53:48;;;;;;;18.80;7.70;;;4.80;1.00;;;;;;5049300;28;20385;-53
2023/01/24 10:56:16;;;;;;;18.85;8.05;;;4.80;1.00;;;;;;5049473;28;20408;-53
2023/01/24 10:58:47;;;;;;;19.50;7.70;;;5.80;1.00;;;;;;5048844;28;20426;-53
2023/01/24 11:01:19;;;;;;;22.33;8.65;;;5.10;99.90;;;;;;5049638;28;20755;-53
2023/01/24 11:03:47;;;;;;;15.65;7.00;;;5.10;99.90;;;;;;5048867;28;21445;-53
2023/01/24 11:06:39;;;;;;;20.48;7.72;;;5.10;99.90;;;;;;5049119;28;20412;-54
2023/01/24 11:09:23;;;;;;;16.83;8.00;;;4.70;99.90;;;;;;5049438;28;20385;-54
2023/01/24 11:11:54;;;;;;;14.57;7.50;;;4.60;99.90;;;;;;5048881;28;20453;-53
2023/01/24 11:14:23;;;;;;;19.30;8.77;;;5.30;99.90;;;;;;5049045;28;20401;-53
2023/01/24 11:16:52;;;;;;;18.75;7.78;;;4.70;99.90;;;;;;5049428;28;20381;-53
2023/01/24 11:19:33;;;;;;;17.77;8.05;;;4.70;99.90;;;;;;5053556;28;20401;-53
2023/01/24 11:22:01;;;;;;;23.17;8.13;;;4.90;99.90;;;;;;5053448;28;20810;-53
2023/01/24 11:24:28;;;;;;;19.10;7.85;;;5.00;1.00;;;;;;5052274;28;20806;-53
2023/01/24 11:27:04;;;;;;;18.67;6.72;;;5.20;99.90;;;;;;5052797;28;20416;-56
2023/01/24 11:29:32;;;;;;;18.27;8.07;;;5.10;99.90;;;;;;5052644;28;20456;-54
2023/01/24 11:32:12;;;;;;;17.63;6.95;;;5.10;99.90;;;;;;5053110;28;20401;-54
2023/01/24 11:35:03;;;;;;;17.42;7.13;;;5.10;99.90;;;;;;5052380;28;20475;-53
2023/01/24 11:37:53;;;;;;;14.35;6.80;;;5.20;99.90;;;;;;5052582;28;20393;-53
2023/01/24 11:40:34;;;;;;;19.15;7.50;;;5.10;99.90;;;;;;5053205;28;20420;-53
2023/01/24 11:43:18;;;;;;;17.00;7.73;;;4.90;99.90;;;;;;5053074;28;20901;-54
2023/01/24 11:46:11;;;;;;;15.30;6.78;;;5.10;99.90;;;;;;5052206;28;20385;-54
2023/01/24 11:48:42;;;;;;;16.45;7.20;;;5.00;99.90;;;;;;5052087;28;20734;-53
2023/01/24 11:51:19;;;;;;;16.17;6.90;;;5.00;99.90;;;;;;5068155;28;20418;-54
2023/01/24 11:54:22;;;;;;;17.23;7.32;;;5.00;99.90;;;;;;5051795;28;21001;-53
2023/01/24 11:56:56;;;;;;;15.77;6.53;;;5.00;99.90;;;;;;5067417;28;20887;-53
2023/01/24 11:59:42;;;;;;;14.85;7.00;;;6.00;99.90;;;;;;5052475;28;20859;-58
2023/01/24 12:02:19;;;;;;;15.30;6.68;;;5.20;99.90;;;;;;5052753;28;20392;-54
2023/01/24 12:05:10;;;;;;;16.90;7.78;;;5.30;99.90;;;;;;5051881;28;20369;-53
2023/01/24 12:07:48;;;;;;;16.73;7.30;;;5.20;99.90;;;;;;5051596;28;20472;-53
2023/01/24 12:10:29;;;;;;;15.27;6.90;;;5.90;99.90;;;;;;5052851;28;20396;-55
2023/01/24 12:12:57;;;;;;;17.77;6.45;;;5.00;99.90;;;;;;5052299;28;20916;-53
2023/01/24 12:15:45;;;;;;;24.45;9.75;;;5.00;99.90;;;;;;5051684;28;20754;-59
2023/01/24 12:18:23;;;;;;;17.73;7.13;;;5.20;99.90;;;;;;5052661;28;20409;-53
2023/01/24 12:20:54;;;;;;;20.10;8.40;;;5.20;99.90;;;;;;5052242;28;20378;-53
2023/01/24 12:23:27;;;;;;;18.67;7.50;;;5.00;99.90;;;;;;5052358;28;20400;-54
2023/01/24 12:25:57;;;;;;;19.42;9.02;;;5.10;99.90;;;;;;5052278;28;20405;-54
2023/01/24 12:28:33;;;;;;;21.50;8.07;;;5.20;99.90;;;;;;5052187;28;20393;-59
2023/01/24 12:31:01;;;;;;;13.57;5.82;;;5.20;99.90;;;;;;5052089;28;20448;-53
2023/01/24 12:33:46;;;;;;;15.82;7.07;;;5.10;99.90;;;;;;5051193;28;20738;-54
2023/01/24 12:36:22;;;;;;;14.88;6.60;;;5.20;99.90;;;;;;5052456;28;20386;-54
2023/01/24 12:38:55;;;;;;;14.27;6.40;;;5.10;99.90;;;;;;5051349;28;20838;-53
2023/01/24 12:41:34;;;;;;;16.30;7.68;;;5.30;99.90;;;;;;5051703;28;20707;-53
2023/01/24 12:44:37;;;;;;;15.85;6.82;;;4.90;1.00;;;;;;5051922;28;20383;-53
2023/01/24 12:47:17;;;;;;;13.85;5.80;;;5.90;1.00;;;;;;5019949;28;20412;-53
2023/01/24 12:50:04;;;;;;;14.57;5.65;;;5.70;99.90;;;;;;5050840;28;20388;-54
2023/01/24 12:52:52;;;;;;;13.93;5.80;;;5.10;1.00;;;;;;5051079;28;20405;-54
2023/01/24 12:55:20;;;;;;;17.75;7.20;;;4.70;1.00;;;;;;5051497;28;20431;-54
2023/01/24 12:57:50;;;;;;;11.90;5.80;;;4.70;1.00;;;;;;5039486;28;20422;-53
2023/01/24 13:00:21;;;;;;;17.08;7.78;;;4.70;14.10;;;;;;5041258;28;20401;-53
2023/01/24 13:02:58;;;;;;;14.30;6.05;;;4.80;99.90;;;;;;5031464;28;20485;-53
2023/01/24 13:05:47;;;;;;;16.40;6.47;;;4.70;99.90;;;;;;5047396;28;20503;-59
2023/01/24 13:08:32;;;;;;;15.27;6.30;;;4.80;1.00;;;;;;5050441;28;20389;-55
2023/01/24 13:11:16;;;;;;;14.10;6.57;;;4.90;1.00;;;;;;5031316;28;20379;-54
2023/01/24 13:14:02;;;;;;;17.35;6.85;;;4.90;1.00;;;;;;5037137;28;20413;-54
2023/01/24 13:16:44;;;;;;;15.60;5.88;;;4.80;1.00;;;;;;5045394;28;20511;-54
2023/01/24 13:19:18;;;;;;;16.83;6.53;;;4.80;1.00;;;;;;5049398;28;20401;-54
2023/01/24 13:21:58;;;;;;;17.48;7.07;;;4.70;1.00;;;;;;5050587;28;20396;-53
2023/01/24 13:24:48;;;;;;;17.58;7.57;;;4.50;1.00;;;;;;5050073;28;20406;-58
2023/01/24 13:27:31;;;;;;;13.98;5.82;;;4.60;99.90;;;;;;5045145;28;20417;-53
2023/01/24 13:30:03;;;;;;;13.77;6.37;;;4.40;99.90;;;;;;5051067;28;20385;-53
2023/01/24 13:32:35;;;;;;;19.33;7.60;;;4.20;99.90;;;;;;5050454;28;20495;-53
2023/01/24 13:35:01;;;;;;;16.17;7.63;;;4.60;1.00;;;;;;5050972;28;20377;-52
2023/01/24 13:37:31;;;;;;;14.77;6.18;;;4.60;99.90;;;;;;5050540;28;20376;-58
2023/01/24 13:40:01;;;;;;;13.93;6.00;;;4.70;99.90;;;;;;5049220;28;20707;-52